Delta Billie — WDE8059 — position and weather

sailwx.info

Track history (hours):
 
Tides and Currents Weather Stations Pressure Air Temp Water Temp Dewpoint Dewpoint Depression Visibility Wind Speed Wind Dir Waves Ship Positions

Delta Billie

Owner: Baydelta Maritime, San Francicso, CA. More information available from US FCC via Universal Licensing System and Coast Guard Vessel Documentation Center.

Last reported at 2017-Apr-23 21:30 UTC. Time now 2017-Apr-23 21:44 UTC.
Position N 37°48' W 122°24'.

Length 30 m; draft 5.5 m.

Type: Towing. MMSI: 367401030.

Date/timePositionNaut miles runAvg speedWind from/ knotsBaromVisibWave heightAir tempDewpointWater temp
2017-Apr-23 21:30N 37°48' W 122°24'0 0.0
2017-Apr-23 21:00N 37°48' W 122°24'0 0.0
2017-Apr-23 20:30N 37°48' W 122°24'0 0.0
2017-Apr-23 20:00N 37°48' W 122°24'0 0.0
2017-Apr-23 19:30N 37°48' W 122°24'0 0.0
2017-Apr-23 19:00N 37°48' W 122°24'0 0.0
2017-Apr-23 18:30N 37°48' W 122°24'0 0.0
2017-Apr-23 18:00N 37°48' W 122°24'0 0.0
2017-Apr-23 17:30N 37°48' W 122°24'0 0.0
2017-Apr-23 17:00N 37°48' W 122°24'0 0.0
2017-Apr-23 16:30N 37°48' W 122°24'0 0.0
2017-Apr-23 16:00N 37°48' W 122°24'0 0.0
2017-Apr-23 15:30N 37°48' W 122°24'0 0.0
2017-Apr-23 15:00N 37°48' W 122°24'1 0.8
2017-Apr-23 14:00N 37°48' W 122°23'2 4.3
2017-Apr-23 13:30N 37°49' W 122°20'0 0.3
2017-Apr-23 13:00N 37°48' W 122°20'0 0.7
2017-Apr-23 12:30N 37°49' W 122°20'1 1.4
2017-Apr-23 12:00N 37°48' W 122°21'0 0.1
2017-Apr-23 11:30N 37°48' W 122°21'0 0.4
2017-Apr-23 11:00N 37°48' W 122°21'0 0.0
2017-Apr-23 10:30N 37°48' W 122°21'0 0.5
2017-Apr-23 10:00N 37°49' W 122°20'0 0.5
2017-Apr-23 09:30N 37°48' W 122°21'1 1.0
2017-Apr-23 09:00N 37°49' W 122°21'5 9.7
2017-Apr-23 08:30N 37°52' W 122°25'612.3
2017-Apr-23 08:00N 37°59' W 122°26'510.8
2017-Apr-23 07:30N 38°02' W 122°21'510.2
2017-Apr-23 07:00N 38°04' W 122°14'6 3.6
2017-Apr-23 05:25N 38°02' W 122°07'1 1.6
2017-Apr-23 04:53N 38°02' W 122°08'2 5.8
2017-Apr-23 04:30N 38°03' W 122°11'5 9.3
2017-Apr-23 04:00N 38°04' W 122°17'5 8.8
2017-Apr-23 03:27N 38°02' W 122°22'3 7.0
2017-Apr-23 03:00N 37°60' W 122°25'1 1.8
2017-Apr-23 02:29N 37°59' W 122°26'2 3.3
2017-Apr-23 02:00N 37°57' W 122°27'4 7.1
2017-Apr-23 01:30N 37°54' W 122°26'3 6.9
2017-Apr-23 01:00N 37°51' W 122°26'5 9.7
2017-Apr-23 00:31N 37°48' W 122°31'1 2.2
2017-Apr-23 00:00N 37°48' W 122°30'0 0.8
2017-Apr-22 23:30N 37°48' W 122°30'3 6.4
2017-Apr-22 23:00N 37°49' W 122°26'2 4.0
2017-Apr-22 22:30N 37°48' W 122°24'0 0.0
2017-Apr-22 22:00N 37°48' W 122°24'0 0.0
2017-Apr-22 21:29N 37°48' W 122°24'0 0.0
2017-Apr-22 21:00N 37°48' W 122°24'0 0.0
2017-Apr-22 20:30N 37°48' W 122°24'0 0.0
2017-Apr-22 20:00N 37°48' W 122°24'0 0.0
2017-Apr-22 19:30N 37°48' W 122°24'0 0.0
2017-Apr-22 19:00N 37°48' W 122°24'0 0.0
2017-Apr-22 18:30N 37°48' W 122°24'0 0.0
2017-Apr-22 18:00N 37°48' W 122°24'0 0.0
2017-Apr-22 17:30N 37°48' W 122°24'0 0.0
2017-Apr-22 17:00N 37°48' W 122°24'0 0.0
2017-Apr-22 16:30N 37°48' W 122°24'0 0.0
2017-Apr-22 16:00N 37°48' W 122°24'0 0.0
2017-Apr-22 15:30N 37°48' W 122°24'0 0.0
2017-Apr-22 15:00N 37°48' W 122°24'0 0.0
2017-Apr-22 14:30N 37°48' W 122°24'3 2.7
2017-Apr-22 13:30N 37°48' W 122°21'0 0.9
2017-Apr-22 13:00N 37°49' W 122°20'0 0.4
2017-Apr-22 12:30N 37°49' W 122°20'3 5.5
2017-Apr-22 12:00N 37°48' W 122°23'1 1.2
2017-Apr-22 11:30N 37°48' W 122°24'0 0.0
2017-Apr-22 11:00N 37°48' W 122°24'0 0.0
2017-Apr-22 10:30N 37°48' W 122°24'0 0.0
2017-Apr-22 10:00N 37°48' W 122°24'0 0.0
2017-Apr-22 09:30N 37°48' W 122°24'0 0.0
2017-Apr-22 09:00N 37°48' W 122°24'0 0.0
2017-Apr-22 08:30N 37°48' W 122°24'0 0.0
2017-Apr-22 08:00N 37°48' W 122°24'0 0.0
2017-Apr-22 07:30N 37°48' W 122°24'0 0.0
2017-Apr-22 07:00N 37°48' W 122°24'0 0.0
2017-Apr-22 06:30N 37°48' W 122°24'0 0.0
2017-Apr-22 06:00N 37°48' W 122°24'0 0.0
2017-Apr-22 05:30N 37°48' W 122°24'0 0.0
2017-Apr-22 05:00N 37°48' W 122°24'0 0.0
2017-Apr-22 04:30N 37°48' W 122°24'0 0.0
2017-Apr-22 04:00N 37°48' W 122°24'0 0.0
2017-Apr-22 03:30N 37°48' W 122°24'0 0.0
2017-Apr-22 03:00N 37°48' W 122°24'0 0.0
2017-Apr-22 02:30N 37°48' W 122°24'0 0.0
2017-Apr-22 02:00N 37°48' W 122°24'0 0.0
2017-Apr-22 01:30N 37°48' W 122°24'0 0.0
2017-Apr-22 01:00N 37°48' W 122°24'3 6.9
2017-Apr-22 00:30N 37°49' W 122°20'0 0.3
2017-Apr-22 00:00N 37°49' W 122°20'0 0.1
2017-Apr-21 23:30N 37°49' W 122°20'0 0.0
2017-Apr-21 23:00N 37°49' W 122°20'0 0.0
2017-Apr-21 22:30N 37°49' W 122°20'0 0.0
2017-Apr-21 22:00N 37°49' W 122°20'0 0.0
2017-Apr-21 21:30N 37°49' W 122°20'0 0.0
2017-Apr-21 21:00N 37°49' W 122°20'0 0.0
2017-Apr-21 20:30N 37°49' W 122°20'2 4.5
2017-Apr-21 20:00N 37°50' W 122°22'5 9.7
2017-Apr-21 19:30N 37°54' W 122°25'611.0
2017-Apr-21 19:00N 37°60' W 122°25'510.5
2017-Apr-21 18:30N 38°03' W 122°20'510.1
2017-Apr-21 18:00N 38°04' W 122°13'3 5.7
2017-Apr-21 17:29N 38°06' W 122°16'0 0.1
2017-Apr-21 17:00N 38°06' W 122°16'1 1.7
2017-Apr-21 16:29N 38°05' W 122°15'2 4.6
2017-Apr-21 16:00N 38°04' W 122°17'3 6.2
2017-Apr-21 15:29N 38°03' W 122°21'3 5.7
2017-Apr-21 14:58N 38°01' W 122°24'3 5.5
2017-Apr-21 14:30N 37°59' W 122°26'6 6.0
2017-Apr-21 13:30N 37°53' W 122°25'3 6.3
2017-Apr-21 13:00N 37°50' W 122°24'3 5.4
2017-Apr-21 12:30N 37°47' W 122°23'0 0.4
2017-Apr-21 12:00N 37°47' W 122°23'0 0.0
2017-Apr-21 11:30N 37°47' W 122°23'1 2.4
2017-Apr-21 11:00N 37°48' W 122°24'0 0.0
2017-Apr-21 10:30N 37°48' W 122°24'0 0.0
2017-Apr-21 10:00N 37°48' W 122°24'0 0.0
2017-Apr-21 09:30N 37°48' W 122°24'0 0.0
2017-Apr-21 09:00N 37°48' W 122°24'0 0.0
2017-Apr-21 08:30N 37°48' W 122°24'0 0.0
2017-Apr-21 08:00N 37°48' W 122°24'0 0.0
2017-Apr-21 07:30N 37°48' W 122°24'0 0.0
2017-Apr-21 07:00N 37°48' W 122°24'0 0.0
2017-Apr-21 06:30N 37°48' W 122°24'0 0.0
2017-Apr-21 06:00N 37°48' W 122°24'0 0.0
2017-Apr-21 05:30N 37°48' W 122°24'0 0.0
2017-Apr-21 05:00N 37°48' W 122°24'0 0.0
2017-Apr-21 04:30N 37°48' W 122°24'0 0.0
2017-Apr-21 04:00N 37°48' W 122°24'0 0.0
2017-Apr-21 03:30N 37°48' W 122°24'0 0.0
2017-Apr-21 03:00N 37°48' W 122°24'0 0.0
2017-Apr-21 02:30N 37°48' W 122°24'0 0.0
2017-Apr-21 02:00N 37°48' W 122°24'0 0.0
2017-Apr-21 01:30N 37°48' W 122°24'0 0.0
2017-Apr-21 01:00N 37°48' W 122°24'3 5.5
2017-Apr-21 00:30N 37°48' W 122°20'1 1.2
2017-Apr-21 00:00N 37°48' W 122°21'2 4.4
2017-Apr-20 23:30N 37°48' W 122°24'0 0.0
2017-Apr-20 22:59N 37°48' W 122°24'0 0.0
2017-Apr-20 22:30N 37°48' W 122°24'0 0.0
2017-Apr-20 22:00N 37°48' W 122°24'0 0.0
2017-Apr-20 21:30N 37°48' W 122°24'3 5.4
2017-Apr-20 21:00N 37°49' W 122°27'3 6.4
2017-Apr-20 20:30N 37°49' W 122°31'3 6.2
2017-Apr-20 20:00N 37°50' W 122°27'4 8.9
2017-Apr-20 19:30N 37°54' W 122°27'612.3
2017-Apr-20 19:00N 38°00' W 122°25'611.9
2017-Apr-20 18:30N 38°03' W 122°18'6 0.3
2017-Apr-20 02:23N 38°03' W 122°11'510.1
2017-Apr-20 01:56N 38°03' W 122°17'410.1
2017-Apr-20 01:30N 38°02' W 122°22'510.4
2017-Apr-20 01:00N 37°57' W 122°26'510.5
2017-Apr-20 00:30N 37°52' W 122°24'4 8.8
2017-Apr-20 00:00N 37°49' W 122°21'1 2.6
2017-Apr-19 23:30N 37°49' W 122°20'0 0.9
2017-Apr-19 23:00N 37°49' W 122°20'3 5.3
2017-Apr-19 22:30N 37°48' W 122°24'0 0.8
2017-Apr-19 22:00N 37°48' W 122°24'0 0.0
2017-Apr-19 21:30N 37°48' W 122°24'0 0.0
2017-Apr-19 21:00N 37°48' W 122°24'0 0.0
2017-Apr-19 20:30N 37°48' W 122°24'0 0.0
2017-Apr-19 20:00N 37°48' W 122°24'0 0.0
2017-Apr-19 19:30N 37°48' W 122°24'0 0.0
2017-Apr-19 19:00N 37°48' W 122°24'0 0.0
2017-Apr-19 18:30N 37°48' W 122°24'0 0.0
2017-Apr-19 18:00N 37°48' W 122°24'0 0.0
2017-Apr-19 17:30N 37°48' W 122°24'0 0.0
2017-Apr-19 17:00N 37°48' W 122°24'0 0.0
2017-Apr-19 16:30N 37°48' W 122°24'0 0.0
2017-Apr-19 16:00N 37°48' W 122°24'1 2.4
2017-Apr-19 15:30N 37°47' W 122°23'0 0.2
2017-Apr-19 15:00N 37°47' W 122°23'1 2.3
2017-Apr-19 14:30N 37°48' W 122°22'7 7.3
2017-Apr-19 13:30N 37°54' W 122°25'510.3
2017-Apr-19 13:00N 37°60' W 122°25'510.7
2017-Apr-19 12:30N 38°03' W 122°20'611.5
2017-Apr-19 11:58N 38°03' W 122°12'1 0.2
2017-Apr-19 07:25N 38°03' W 122°11'4 9.5
2017-Apr-19 07:00N 38°03' W 122°16'0 0.0
2017-Apr-19 06:30N 38°03' W 122°16'0 0.0
2017-Apr-19 06:00N 38°03' W 122°16'0 0.0
2017-Apr-19 05:30N 38°03' W 122°16'0 0.2
2017-Apr-19 05:01N 38°04' W 122°16'2 3.3
2017-Apr-19 04:30N 38°03' W 122°18'2 4.9
2017-Apr-19 04:00N 38°03' W 122°15'0 0.0
2017-Apr-19 03:30N 38°03' W 122°15'0 0.0
2017-Apr-19 03:00N 38°03' W 122°15'0 0.0
2017-Apr-19 02:30N 38°03' W 122°15'0 0.0
2017-Apr-19 02:00N 38°03' W 122°15'0 0.0
2017-Apr-19 01:30N 38°03' W 122°15'2 4.9
2017-Apr-19 01:00N 38°03' W 122°18'510.1
2017-Apr-19 00:30N 38°01' W 122°24'510.1
2017-Apr-19 00:00N 37°56' W 122°26'1 2.3
2017-Apr-18 23:30N 37°55' W 122°25'1 1.0
2017-Apr-18 23:01N 37°55' W 122°25'3 6.6
2017-Apr-18 22:30N 37°52' W 122°25'3 6.1
2017-Apr-18 22:00N 37°49' W 122°26'4 8.3
2017-Apr-18 21:30N 37°49' W 122°31'0 0.9
2017-Apr-18 21:00N 37°49' W 122°31'5 9.2
2017-Apr-18 20:31N 37°49' W 122°25'1 2.3
2017-Apr-18 20:00N 37°48' W 122°24'0 0.0
2017-Apr-18 19:30N 37°48' W 122°24'0 0.0
2017-Apr-18 19:00N 37°48' W 122°24'0 0.0
2017-Apr-18 18:30N 37°48' W 122°24'0 0.0
2017-Apr-18 18:00N 37°48' W 122°24'0 0.0
2017-Apr-18 17:30N 37°48' W 122°24'0 0.0
2017-Apr-18 17:00N 37°48' W 122°24'0 0.0
2017-Apr-18 16:30N 37°48' W 122°24'0 0.0
2017-Apr-18 16:00N 37°48' W 122°24'1 1.8
2017-Apr-18 15:30N 37°49' W 122°25'4 8.5
2017-Apr-18 15:00N 37°49' W 122°30'4 4.3
2017-Apr-18 14:01N 37°51' W 122°25'4 8.8
2017-Apr-18 13:30N 37°55' W 122°27'5 9.2
2017-Apr-18 12:59N 37°60' W 122°25'4 8.7
2017-Apr-18 12:30N 38°02' W 122°21'4 7.3
2017-Apr-18 12:00N 38°03' W 122°17'1 0.9
2017-Apr-18 11:03N 38°03' W 122°16'0 0.1
2017-Apr-18 10:58N 38°03' W 122°16'0 0.0
2017-Apr-18 10:22N 38°03' W 122°16'1 0.2
2017-Apr-18 06:47N 38°03' W 122°15'2 8.3
2017-Apr-18 06:30N 38°03' W 122°18'510.1
2017-Apr-18 06:00N 38°01' W 122°23'5 9.5
2017-Apr-18 05:30N 37°57' W 122°26'4 7.5
2017-Apr-18 05:00N 37°55' W 122°22'0 0.4
2017-Apr-18 04:30N 37°55' W 122°22'0 0.9
2017-Apr-18 04:00N 37°54' W 122°22'2 4.9
2017-Apr-18 03:30N 37°55' W 122°25'3 5.5
2017-Apr-18 03:01N 37°52' W 122°25'1 2.1
2017-Apr-18 02:30N 37°52' W 122°24'2 3.8
2017-Apr-18 02:00N 37°50' W 122°22'3 6.8
2017-Apr-18 01:31N 37°48' W 122°19'2 3.4
2017-Apr-18 01:00N 37°48' W 122°17'1 1.5
2017-Apr-18 00:31N 37°48' W 122°18'1 1.1
2017-Apr-18 00:01N 37°48' W 122°19'0 0.0
2017-Apr-17 23:31N 37°48' W 122°19'0 0.3
2017-Apr-17 23:00N 37°48' W 122°19'5 9.0
2017-Apr-17 22:30N 37°50' W 122°24'5 9.8
2017-Apr-17 22:00N 37°55' W 122°25'5 8.9
2017-Apr-17 21:29N 37°60' W 122°25'510.3
2017-Apr-17 21:00N 38°03' W 122°20'5 0.7
2017-Apr-17 13:56N 38°04' W 122°14'4 0.4
2017-Apr-17 02:28N 38°02' W 122°08'0 0.6
2017-Apr-17 01:57N 38°02' W 122°09'1 0.2
2017-Apr-16 22:17N 38°02' W 122°08'0 0.0
2017-Apr-16 15:22N 38°02' W 122°08'0 0.0
2017-Apr-16 15:00N 38°02' W 122°08'0 0.0
2017-Apr-16 14:00N 38°02' W 122°08'0 0.0
2017-Apr-16 13:30N 38°02' W 122°08'0 0.2
2017-Apr-16 11:35N 38°02' W 122°08'1 3.9
2017-Apr-16 11:27N 38°02' W 122°08'1 0.2
2017-Apr-16 08:00N 38°02' W 122°08'0 0.0
2017-Apr-16 06:56N 38°02' W 122°08'0 0.0
2017-Apr-16 05:30N 38°02' W 122°08'0 0.0
2017-Apr-16 03:59N 38°02' W 122°08'2 0.7
2017-Apr-16 00:56N 38°03' W 122°11'510.4
2017-Apr-16 00:28N 38°03' W 122°17'610.9
2017-Apr-15 23:54N 38°01' W 122°24'410.7
2017-Apr-15 23:30N 37°57' W 122°26'2 3.5
2017-Apr-15 23:00N 37°55' W 122°25'0 0.0
2017-Apr-15 22:30N 37°55' W 122°25'0 0.2
2017-Apr-15 22:00N 37°55' W 122°25'2 4.2
2017-Apr-15 21:30N 37°53' W 122°25'1 1.9
2017-Apr-15 21:01N 37°52' W 122°25'2 4.1
2017-Apr-15 20:30N 37°54' W 122°25'4 8.8
2017-Apr-15 20:00N 37°59' W 122°25'5 9.5
2017-Apr-15 19:30N 38°02' W 122°21'611.0
2017-Apr-15 19:00N 38°04' W 122°15'510.1
2017-Apr-15 18:30N 38°02' W 122°09'0 0.7
2017-Apr-15 18:00N 38°02' W 122°08'0 0.0
2017-Apr-15 17:30N 38°02' W 122°08'0 0.0
2017-Apr-15 17:00N 38°02' W 122°08'0 0.0
2017-Apr-15 16:30N 38°02' W 122°08'0 0.0
2017-Apr-15 15:53N 38°02' W 122°08'0 0.0
2017-Apr-15 15:14N 38°02' W 122°08'0 0.7
2017-Apr-15 14:53N 38°02' W 122°08'0 0.4
2017-Apr-15 14:00N 38°02' W 122°08'1 0.5
2017-Apr-15 12:52N 38°02' W 122°08'0 0.0
2017-Apr-15 12:26N 38°02' W 122°08'0 0.0
2017-Apr-15 11:44N 38°02' W 122°08'0 0.0
2017-Apr-15 11:00N 38°02' W 122°08'0 0.0
2017-Apr-15 10:10N 38°02' W 122°08'2 1.7
2017-Apr-15 08:55N 38°03' W 122°11'4 9.7
2017-Apr-15 08:30N 38°03' W 122°16'0 0.0
2017-Apr-15 07:52N 38°03' W 122°16'1 1.4
2017-Apr-15 07:27N 38°04' W 122°17'1 2.0
2017-Apr-15 07:00N 38°03' W 122°18'5 9.0
2017-Apr-15 06:27N 38°03' W 122°11'0 0.0
2017-Apr-14 05:05N 38°03' W 122°11'2 8.0
2017-Apr-14 04:51N 38°04' W 122°13'3 7.9
2017-Apr-14 04:30N 38°03' W 122°17'6 8.1
2017-Apr-14 03:47N 38°01' W 122°23'3 8.6
2017-Apr-14 03:29N 37°59' W 122°25'4 8.3
2017-Apr-14 03:00N 37°55' W 122°25'4 7.8
2017-Apr-14 02:30N 37°51' W 122°24'5 9.6
2017-Apr-14 02:00N 37°48' W 122°20'1 1.3
2017-Apr-14 01:30N 37°48' W 122°19'0 0.1
2017-Apr-14 01:01N 37°48' W 122°19'2 3.2
2017-Apr-14 00:31N 37°48' W 122°21'0 0.2
2017-Apr-14 00:00N 37°48' W 122°21'0 0.4
2017-Apr-13 23:30N 37°49' W 122°20'1 1.5
2017-Apr-13 23:01N 37°49' W 122°20'0 0.4
2017-Apr-13 22:30N 37°49' W 122°20'0 0.4
2017-Apr-13 22:00N 37°49' W 122°20'  
Track history (hours):
 
Tides and Currents Weather Stations Pressure Air Temp Water Temp Dewpoint Dewpoint Depression Visibility Wind Speed Wind Dir Waves Ship Positions

Delta Billie

Owner: Baydelta Maritime, San Francicso, CA. More information available from US FCC via Universal Licensing System and Coast Guard Vessel Documentation Center.

Last reported at 2017-Apr-23 21:30 UTC. Time now 2017-Apr-23 21:44 UTC.
Position N 37°48' W 122°24'.

Length 30 m; draft 5.5 m.

Type: Towing. MMSI: 367401030.

Date/timePositionNaut miles runAvg speedWind from/ knotsBaromVisibWave heightAir tempDewpointWater temp
2017-Apr-23 21:30N 37°48' W 122°24'0 0.0
2017-Apr-23 21:00N 37°48' W 122°24'0 0.0
2017-Apr-23 20:30N 37°48' W 122°24'0 0.0
2017-Apr-23 20:00N 37°48' W 122°24'0 0.0
2017-Apr-23 19:30N 37°48' W 122°24'0 0.0
2017-Apr-23 19:00N 37°48' W 122°24'0 0.0
2017-Apr-23 18:30N 37°48' W 122°24'0 0.0
2017-Apr-23 18:00N 37°48' W 122°24'0 0.0
2017-Apr-23 17:30N 37°48' W 122°24'0 0.0
2017-Apr-23 17:00N 37°48' W 122°24'0 0.0
2017-Apr-23 16:30N 37°48' W 122°24'0 0.0
2017-Apr-23 16:00N 37°48' W 122°24'0 0.0
2017-Apr-23 15:30N 37°48' W 122°24'0 0.0
2017-Apr-23 15:00N 37°48' W 122°24'1 0.8
2017-Apr-23 14:00N 37°48' W 122°23'2 4.3
2017-Apr-23 13:30N 37°49' W 122°20'0 0.3
2017-Apr-23 13:00N 37°48' W 122°20'0 0.7
2017-Apr-23 12:30N 37°49' W 122°20'1 1.4
2017-Apr-23 12:00N 37°48' W 122°21'0 0.1
2017-Apr-23 11:30N 37°48' W 122°21'0 0.4
2017-Apr-23 11:00N 37°48' W 122°21'0 0.0
2017-Apr-23 10:30N 37°48' W 122°21'0 0.5
2017-Apr-23 10:00N 37°49' W 122°20'0 0.5
2017-Apr-23 09:30N 37°48' W 122°21'1 1.0
2017-Apr-23 09:00N 37°49' W 122°21'5 9.7
2017-Apr-23 08:30N 37°52' W 122°25'612.3
2017-Apr-23 08:00N 37°59' W 122°26'510.8
2017-Apr-23 07:30N 38°02' W 122°21'510.2
2017-Apr-23 07:00N 38°04' W 122°14'6 3.6
2017-Apr-23 05:25N 38°02' W 122°07'1 1.6
2017-Apr-23 04:53N 38°02' W 122°08'2 5.8
2017-Apr-23 04:30N 38°03' W 122°11'5 9.3
2017-Apr-23 04:00N 38°04' W 122°17'5 8.8
2017-Apr-23 03:27N 38°02' W 122°22'3 7.0
2017-Apr-23 03:00N 37°60' W 122°25'1 1.8
2017-Apr-23 02:29N 37°59' W 122°26'2 3.3
2017-Apr-23 02:00N 37°57' W 122°27'4 7.1
2017-Apr-23 01:30N 37°54' W 122°26'3 6.9
2017-Apr-23 01:00N 37°51' W 122°26'5 9.7
2017-Apr-23 00:31N 37°48' W 122°31'1 2.2
2017-Apr-23 00:00N 37°48' W 122°30'0 0.8
2017-Apr-22 23:30N 37°48' W 122°30'3 6.4
2017-Apr-22 23:00N 37°49' W 122°26'2 4.0
2017-Apr-22 22:30N 37°48' W 122°24'0 0.0
2017-Apr-22 22:00N 37°48' W 122°24'0 0.0
2017-Apr-22 21:29N 37°48' W 122°24'0 0.0
2017-Apr-22 21:00N 37°48' W 122°24'0 0.0
2017-Apr-22 20:30N 37°48' W 122°24'0 0.0
2017-Apr-22 20:00N 37°48' W 122°24'0 0.0
2017-Apr-22 19:30N 37°48' W 122°24'0 0.0
2017-Apr-22 19:00N 37°48' W 122°24'0 0.0
2017-Apr-22 18:30N 37°48' W 122°24'0 0.0
2017-Apr-22 18:00N 37°48' W 122°24'0 0.0
2017-Apr-22 17:30N 37°48' W 122°24'0 0.0
2017-Apr-22 17:00N 37°48' W 122°24'0 0.0
2017-Apr-22 16:30N 37°48' W 122°24'0 0.0
2017-Apr-22 16:00N 37°48' W 122°24'0 0.0
2017-Apr-22 15:30N 37°48' W 122°24'0 0.0
2017-Apr-22 15:00N 37°48' W 122°24'0 0.0
2017-Apr-22 14:30N 37°48' W 122°24'3 2.7
2017-Apr-22 13:30N 37°48' W 122°21'0 0.9
2017-Apr-22 13:00N 37°49' W 122°20'0 0.4
2017-Apr-22 12:30N 37°49' W 122°20'3 5.5
2017-Apr-22 12:00N 37°48' W 122°23'1 1.2
2017-Apr-22 11:30N 37°48' W 122°24'0 0.0
2017-Apr-22 11:00N 37°48' W 122°24'0 0.0
2017-Apr-22 10:30N 37°48' W 122°24'0 0.0
2017-Apr-22 10:00N 37°48' W 122°24'0 0.0
2017-Apr-22 09:30N 37°48' W 122°24'0 0.0
2017-Apr-22 09:00N 37°48' W 122°24'0 0.0
2017-Apr-22 08:30N 37°48' W 122°24'0 0.0
2017-Apr-22 08:00N 37°48' W 122°24'0 0.0
2017-Apr-22 07:30N 37°48' W 122°24'0 0.0
2017-Apr-22 07:00N 37°48' W 122°24'0 0.0
2017-Apr-22 06:30N 37°48' W 122°24'0 0.0
2017-Apr-22 06:00N 37°48' W 122°24'0 0.0
2017-Apr-22 05:30N 37°48' W 122°24'0 0.0
2017-Apr-22 05:00N 37°48' W 122°24'0 0.0
2017-Apr-22 04:30N 37°48' W 122°24'0 0.0
2017-Apr-22 04:00N 37°48' W 122°24'0 0.0
2017-Apr-22 03:30N 37°48' W 122°24'0 0.0
2017-Apr-22 03:00N 37°48' W 122°24'0 0.0
2017-Apr-22 02:30N 37°48' W 122°24'0 0.0
2017-Apr-22 02:00N 37°48' W 122°24'0 0.0
2017-Apr-22 01:30N 37°48' W 122°24'0 0.0
2017-Apr-22 01:00N 37°48' W 122°24'3 6.9
2017-Apr-22 00:30N 37°49' W 122°20'0 0.3
2017-Apr-22 00:00N 37°49' W 122°20'0 0.1
2017-Apr-21 23:30N 37°49' W 122°20'0 0.0
2017-Apr-21 23:00N 37°49' W 122°20'0 0.0
2017-Apr-21 22:30N 37°49' W 122°20'0 0.0
2017-Apr-21 22:00N 37°49' W 122°20'0 0.0
2017-Apr-21 21:30N 37°49' W 122°20'0 0.0
2017-Apr-21 21:00N 37°49' W 122°20'0 0.0
2017-Apr-21 20:30N 37°49' W 122°20'2 4.5
2017-Apr-21 20:00N 37°50' W 122°22'5 9.7
2017-Apr-21 19:30N 37°54' W 122°25'611.0
2017-Apr-21 19:00N 37°60' W 122°25'510.5
2017-Apr-21 18:30N 38°03' W 122°20'510.1
2017-Apr-21 18:00N 38°04' W 122°13'3 5.7
2017-Apr-21 17:29N 38°06' W 122°16'0 0.1
2017-Apr-21 17:00N 38°06' W 122°16'1 1.7
2017-Apr-21 16:29N 38°05' W 122°15'2 4.6
2017-Apr-21 16:00N 38°04' W 122°17'3 6.2
2017-Apr-21 15:29N 38°03' W 122°21'3 5.7
2017-Apr-21 14:58N 38°01' W 122°24'3 5.5
2017-Apr-21 14:30N 37°59' W 122°26'6 6.0
2017-Apr-21 13:30N 37°53' W 122°25'3 6.3
2017-Apr-21 13:00N 37°50' W 122°24'3 5.4
2017-Apr-21 12:30N 37°47' W 122°23'0 0.4
2017-Apr-21 12:00N 37°47' W 122°23'0 0.0
2017-Apr-21 11:30N 37°47' W 122°23'1 2.4
2017-Apr-21 11:00N 37°48' W 122°24'0 0.0
2017-Apr-21 10:30N 37°48' W 122°24'0 0.0
2017-Apr-21 10:00N 37°48' W 122°24'0 0.0
2017-Apr-21 09:30N 37°48' W 122°24'0 0.0
2017-Apr-21 09:00N 37°48' W 122°24'0 0.0
2017-Apr-21 08:30N 37°48' W 122°24'0 0.0
2017-Apr-21 08:00N 37°48' W 122°24'0 0.0
2017-Apr-21 07:30N 37°48' W 122°24'0 0.0
2017-Apr-21 07:00N 37°48' W 122°24'0 0.0
2017-Apr-21 06:30N 37°48' W 122°24'0 0.0
2017-Apr-21 06:00N 37°48' W 122°24'0 0.0
2017-Apr-21 05:30N 37°48' W 122°24'0 0.0
2017-Apr-21 05:00N 37°48' W 122°24'0 0.0
2017-Apr-21 04:30N 37°48' W 122°24'0 0.0
2017-Apr-21 04:00N 37°48' W 122°24'0 0.0
2017-Apr-21 03:30N 37°48' W 122°24'0 0.0
2017-Apr-21 03:00N 37°48' W 122°24'0 0.0
2017-Apr-21 02:30N 37°48' W 122°24'0 0.0
2017-Apr-21 02:00N 37°48' W 122°24'0 0.0
2017-Apr-21 01:30N 37°48' W 122°24'0 0.0
2017-Apr-21 01:00N 37°48' W 122°24'3 5.5
2017-Apr-21 00:30N 37°48' W 122°20'1 1.2
2017-Apr-21 00:00N 37°48' W 122°21'2 4.4
2017-Apr-20 23:30N 37°48' W 122°24'0 0.0
2017-Apr-20 22:59N 37°48' W 122°24'0 0.0
2017-Apr-20 22:30N 37°48' W 122°24'0 0.0
2017-Apr-20 22:00N 37°48' W 122°24'0 0.0
2017-Apr-20 21:30N 37°48' W 122°24'3 5.4
2017-Apr-20 21:00N 37°49' W 122°27'3 6.4
2017-Apr-20 20:30N 37°49' W 122°31'3 6.2
2017-Apr-20 20:00N 37°50' W 122°27'4 8.9
2017-Apr-20 19:30N 37°54' W 122°27'612.3
2017-Apr-20 19:00N 38°00' W 122°25'611.9
2017-Apr-20 18:30N 38°03' W 122°18'6 0.3
2017-Apr-20 02:23N 38°03' W 122°11'510.1
2017-Apr-20 01:56N 38°03' W 122°17'410.1
2017-Apr-20 01:30N 38°02' W 122°22'510.4
2017-Apr-20 01:00N 37°57' W 122°26'510.5
2017-Apr-20 00:30N 37°52' W 122°24'4 8.8
2017-Apr-20 00:00N 37°49' W 122°21'1 2.6
2017-Apr-19 23:30N 37°49' W 122°20'0 0.9
2017-Apr-19 23:00N 37°49' W 122°20'3 5.3
2017-Apr-19 22:30N 37°48' W 122°24'0 0.8
2017-Apr-19 22:00N 37°48' W 122°24'0 0.0
2017-Apr-19 21:30N 37°48' W 122°24'0 0.0
2017-Apr-19 21:00N 37°48' W 122°24'0 0.0
2017-Apr-19 20:30N 37°48' W 122°24'0 0.0
2017-Apr-19 20:00N 37°48' W 122°24'0 0.0
2017-Apr-19 19:30N 37°48' W 122°24'0 0.0
2017-Apr-19 19:00N 37°48' W 122°24'0 0.0
2017-Apr-19 18:30N 37°48' W 122°24'0 0.0
2017-Apr-19 18:00N 37°48' W 122°24'0 0.0
2017-Apr-19 17:30N 37°48' W 122°24'0 0.0
2017-Apr-19 17:00N 37°48' W 122°24'0 0.0
2017-Apr-19 16:30N 37°48' W 122°24'0 0.0
2017-Apr-19 16:00N 37°48' W 122°24'1 2.4
2017-Apr-19 15:30N 37°47' W 122°23'0 0.2
2017-Apr-19 15:00N 37°47' W 122°23'1 2.3
2017-Apr-19 14:30N 37°48' W 122°22'7 7.3
2017-Apr-19 13:30N 37°54' W 122°25'510.3
2017-Apr-19 13:00N 37°60' W 122°25'510.7
2017-Apr-19 12:30N 38°03' W 122°20'611.5
2017-Apr-19 11:58N 38°03' W 122°12'1 0.2
2017-Apr-19 07:25N 38°03' W 122°11'4 9.5
2017-Apr-19 07:00N 38°03' W 122°16'0 0.0
2017-Apr-19 06:30N 38°03' W 122°16'0 0.0
2017-Apr-19 06:00N 38°03' W 122°16'0 0.0
2017-Apr-19 05:30N 38°03' W 122°16'0 0.2
2017-Apr-19 05:01N 38°04' W 122°16'2 3.3
2017-Apr-19 04:30N 38°03' W 122°18'2 4.9
2017-Apr-19 04:00N 38°03' W 122°15'0 0.0
2017-Apr-19 03:30N 38°03' W 122°15'0 0.0
2017-Apr-19 03:00N 38°03' W 122°15'0 0.0
2017-Apr-19 02:30N 38°03' W 122°15'0 0.0
2017-Apr-19 02:00N 38°03' W 122°15'0 0.0
2017-Apr-19 01:30N 38°03' W 122°15'2 4.9
2017-Apr-19 01:00N 38°03' W 122°18'510.1
2017-Apr-19 00:30N 38°01' W 122°24'510.1
2017-Apr-19 00:00N 37°56' W 122°26'1 2.3
2017-Apr-18 23:30N 37°55' W 122°25'1 1.0
2017-Apr-18 23:01N 37°55' W 122°25'3 6.6
2017-Apr-18 22:30N 37°52' W 122°25'3 6.1
2017-Apr-18 22:00N 37°49' W 122°26'4 8.3
2017-Apr-18 21:30N 37°49' W 122°31'0 0.9
2017-Apr-18 21:00N 37°49' W 122°31'5 9.2
2017-Apr-18 20:31N 37°49' W 122°25'1 2.3
2017-Apr-18 20:00N 37°48' W 122°24'0 0.0
2017-Apr-18 19:30N 37°48' W 122°24'0 0.0
2017-Apr-18 19:00N 37°48' W 122°24'0 0.0
2017-Apr-18 18:30N 37°48' W 122°24'0 0.0
2017-Apr-18 18:00N 37°48' W 122°24'0 0.0
2017-Apr-18 17:30N 37°48' W 122°24'0 0.0
2017-Apr-18 17:00N 37°48' W 122°24'0 0.0
2017-Apr-18 16:30N 37°48' W 122°24'0 0.0
2017-Apr-18 16:00N 37°48' W 122°24'1 1.8
2017-Apr-18 15:30N 37°49' W 122°25'4 8.5
2017-Apr-18 15:00N 37°49' W 122°30'4 4.3
2017-Apr-18 14:01N 37°51' W 122°25'4 8.8
2017-Apr-18 13:30N 37°55' W 122°27'5 9.2
2017-Apr-18 12:59N 37°60' W 122°25'4 8.7
2017-Apr-18 12:30N 38°02' W 122°21'4 7.3
2017-Apr-18 12:00N 38°03' W 122°17'1 0.9
2017-Apr-18 11:03N 38°03' W 122°16'0 0.1
2017-Apr-18 10:58N 38°03' W 122°16'0 0.0
2017-Apr-18 10:22N 38°03' W 122°16'1 0.2
2017-Apr-18 06:47N 38°03' W 122°15'2 8.3
2017-Apr-18 06:30N 38°03' W 122°18'510.1
2017-Apr-18 06:00N 38°01' W 122°23'5 9.5
2017-Apr-18 05:30N 37°57' W 122°26'4 7.5
2017-Apr-18 05:00N 37°55' W 122°22'0 0.4
2017-Apr-18 04:30N 37°55' W 122°22'0 0.9
2017-Apr-18 04:00N 37°54' W 122°22'2 4.9
2017-Apr-18 03:30N 37°55' W 122°25'3 5.5
2017-Apr-18 03:01N 37°52' W 122°25'1 2.1
2017-Apr-18 02:30N 37°52' W 122°24'2 3.8
2017-Apr-18 02:00N 37°50' W 122°22'3 6.8
2017-Apr-18 01:31N 37°48' W 122°19'2 3.4
2017-Apr-18 01:00N 37°48' W 122°17'1 1.5
2017-Apr-18 00:31N 37°48' W 122°18'1 1.1
2017-Apr-18 00:01N 37°48' W 122°19'0 0.0
2017-Apr-17 23:31N 37°48' W 122°19'0 0.3
2017-Apr-17 23:00N 37°48' W 122°19'5 9.0
2017-Apr-17 22:30N 37°50' W 122°24'5 9.8
2017-Apr-17 22:00N 37°55' W 122°25'5 8.9
2017-Apr-17 21:29N 37°60' W 122°25'510.3
2017-Apr-17 21:00N 38°03' W 122°20'5 0.7
2017-Apr-17 13:56N 38°04' W 122°14'4 0.4
2017-Apr-17 02:28N 38°02' W 122°08'0 0.6
2017-Apr-17 01:57N 38°02' W 122°09'1 0.2
2017-Apr-16 22:17N 38°02' W 122°08'0 0.0
2017-Apr-16 15:22N 38°02' W 122°08'0 0.0
2017-Apr-16 15:00N 38°02' W 122°08'0 0.0
2017-Apr-16 14:00N 38°02' W 122°08'0 0.0
2017-Apr-16 13:30N 38°02' W 122°08'0 0.2
2017-Apr-16 11:35N 38°02' W 122°08'1 3.9
2017-Apr-16 11:27N 38°02' W 122°08'1 0.2
2017-Apr-16 08:00N 38°02' W 122°08'0 0.0
2017-Apr-16 06:56N 38°02' W 122°08'0 0.0
2017-Apr-16 05:30N 38°02' W 122°08'0 0.0
2017-Apr-16 03:59N 38°02' W 122°08'2 0.7
2017-Apr-16 00:56N 38°03' W 122°11'510.4
2017-Apr-16 00:28N 38°03' W 122°17'610.9
2017-Apr-15 23:54N 38°01' W 122°24'410.7
2017-Apr-15 23:30N 37°57' W 122°26'2 3.5
2017-Apr-15 23:00N 37°55' W 122°25'0 0.0
2017-Apr-15 22:30N 37°55' W 122°25'0 0.2
2017-Apr-15 22:00N 37°55' W 122°25'2 4.2
2017-Apr-15 21:30N 37°53' W 122°25'1 1.9
2017-Apr-15 21:01N 37°52' W 122°25'2 4.1
2017-Apr-15 20:30N 37°54' W 122°25'4 8.8
2017-Apr-15 20:00N 37°59' W 122°25'5 9.5
2017-Apr-15 19:30N 38°02' W 122°21'611.0
2017-Apr-15 19:00N 38°04' W 122°15'510.1
2017-Apr-15 18:30N 38°02' W 122°09'0 0.7
2017-Apr-15 18:00N 38°02' W 122°08'0 0.0
2017-Apr-15 17:30N 38°02' W 122°08'0 0.0
2017-Apr-15 17:00N 38°02' W 122°08'0 0.0
2017-Apr-15 16:30N 38°02' W 122°08'0 0.0
2017-Apr-15 15:53N 38°02' W 122°08'0 0.0
2017-Apr-15 15:14N 38°02' W 122°08'0 0.7
2017-Apr-15 14:53N 38°02' W 122°08'0 0.4
2017-Apr-15 14:00N 38°02' W 122°08'1 0.5
2017-Apr-15 12:52N 38°02' W 122°08'0 0.0
2017-Apr-15 12:26N 38°02' W 122°08'0 0.0
2017-Apr-15 11:44N 38°02' W 122°08'0 0.0
2017-Apr-15 11:00N 38°02' W 122°08'0 0.0
2017-Apr-15 10:10N 38°02' W 122°08'2 1.7
2017-Apr-15 08:55N 38°03' W 122°11'4 9.7
2017-Apr-15 08:30N 38°03' W 122°16'0 0.0
2017-Apr-15 07:52N 38°03' W 122°16'1 1.4
2017-Apr-15 07:27N 38°04' W 122°17'1 2.0
2017-Apr-15 07:00N 38°03' W 122°18'5 9.0
2017-Apr-15 06:27N 38°03' W 122°11'0 0.0
2017-Apr-14 05:05N 38°03' W 122°11'2 8.0
2017-Apr-14 04:51N 38°04' W 122°13'3 7.9
2017-Apr-14 04:30N 38°03' W 122°17'6 8.1
2017-Apr-14 03:47N 38°01' W 122°23'3 8.6
2017-Apr-14 03:29N 37°59' W 122°25'4 8.3
2017-Apr-14 03:00N 37°55' W 122°25'4 7.8
2017-Apr-14 02:30N 37°51' W 122°24'5 9.6
2017-Apr-14 02:00N 37°48' W 122°20'1 1.3
2017-Apr-14 01:30N 37°48' W 122°19'0 0.1
2017-Apr-14 01:01N 37°48' W 122°19'2 3.2
2017-Apr-14 00:31N 37°48' W 122°21'0 0.2
2017-Apr-14 00:00N 37°48' W 122°21'0 0.4
2017-Apr-13 23:30N 37°49' W 122°20'1 1.5
2017-Apr-13 23:01N 37°49' W 122°20'0 0.4
2017-Apr-13 22:30N 37°49' W 122°20'0 0.4
2017-Apr-13 22:00N 37°49' W 122°20'  

Dump ship's entire track history